TimeCDT,TemperatureF,Dew PointF,Humidity,Sea Level PressureIn,VisibilityMPH,Wind Direction,Wind SpeedMPH,Gust SpeedMPH,PrecipitationIn,Events,Conditions,WindDirDegrees,DateUTC
12:15 AM,44.6,37.4,76,29.98,10.0,WNW,6.9,-,N/A,,Clear,300,2012-09-19 05:15:00
12:35 AM,44.6,37.4,76,29.98,10.0,WNW,5.8,-,N/A,,Clear,300,2012-09-19 05:35:00
12:55 AM,42.8,35.6,76,29.98,10.0,Calm,Calm,-,N/A,,Clear,0,2012-09-19 05:55:00
1:15 AM,39.2,35.6,87,29.99,10.0,Calm,Calm,-,N/A,,Clear,0,2012-09-19 06:15:00
1:35 AM,39.2,35.6,87,29.99,10.0,Calm,Calm,-,N/A,,Clear,0,2012-09-19 06:35:00
1:55 AM,37.4,35.6,93,29.98,10.0,South,3.5,-,N/A,,Clear,190,2012-09-19 06:55:00
2:15 AM,37.4,35.6,93,29.98,10.0,South,3.5,-,N/A,,Clear,190,2012-09-19 07:15:00
2:35 AM,37.4,35.6,93,29.98,10.0,South,3.5,-,N/A,,Clear,190,2012-09-19 07:35:00
2:55 AM,37.4,33.8,87,29.98,10.0,SSW,4.6,-,N/A,,Clear,200,2012-09-19 07:55:00
3:15 AM,37.4,33.8,87,29.98,10.0,SSW,4.6,-,N/A,,Clear,200,2012-09-19 08:15:00
3:35 AM,35.6,33.8,93,29.98,10.0,SSW,3.5,-,N/A,,Clear,200,2012-09-19 08:35:00
3:55 AM,35.6,33.8,93,29.98,10.0,SSW,4.6,-,N/A,,Clear,200,2012-09-19 08:55:00
4:15 AM,37.4,33.8,87,29.97,10.0,SSW,6.9,-,N/A,,Clear,210,2012-09-19 09:15:00
4:55 AM,37.4,35.6,93,29.98,10.0,SSW,4.6,-,N/A,,Clear,210,2012-09-19 09:55:00
5:15 AM,37.4,33.8,87,29.98,10.0,SSW,5.8,-,N/A,,Clear,200,2012-09-19 10:15:00
5:35 AM,37.4,33.8,87,29.98,10.0,SSW,6.9,-,N/A,,Clear,210,2012-09-19 10:35:00
5:55 AM,37.4,32.0,81,29.98,10.0,SSW,5.8,-,N/A,,Clear,200,2012-09-19 10:55:00
6:15 AM,37.4,33.8,87,29.98,10.0,South,6.9,-,N/A,,Clear,190,2012-09-19 11:15:00
6:35 AM,37.4,33.8,87,29.98,10.0,South,8.1,-,N/A,,Mostly Cloudy,190,2012-09-19 11:35:00
6:55 AM,39.2,33.8,81,29.97,10.0,South,9.2,-,N/A,,Overcast,190,2012-09-19 11:55:00
7:15 AM,39.2,33.8,81,29.97,10.0,South,6.9,-,N/A,,Overcast,190,2012-09-19 12:15:00
7:35 AM,41.0,30.2,65,29.96,10.0,South,8.1,-,N/A,,Overcast,190,2012-09-19 12:35:00
7:55 AM,42.8,30.2,61,29.95,10.0,South,9.2,-,N/A,,Overcast,190,2012-09-19 12:55:00
8:15 AM,44.6,28.4,53,29.95,10.0,South,9.2,-,N/A,,Overcast,190,2012-09-19 13:15:00
8:35 AM,46.4,28.4,50,29.95,10.0,South,11.5,-,N/A,,Overcast,180,2012-09-19 13:35:00
8:55 AM,46.4,30.2,53,29.94,10.0,South,12.7,-,N/A,,Overcast,180,2012-09-19 13:55:00
9:15 AM,46.4,30.2,53,29.94,10.0,South,12.7,-,N/A,,Overcast,190,2012-09-19 14:15:00
9:55 AM,48.2,30.2,50,29.91,10.0,South,13.8,-,N/A,,Overcast,180,2012-09-19 14:55:00
10:15 AM,51.8,30.2,44,29.91,10.0,South,13.8,19.6,N/A,,Overcast,180,2012-09-19 15:15:00
10:35 AM,51.8,28.4,41,29.89,10.0,South,18.4,21.9,N/A,,Overcast,170,2012-09-19 15:35:00
10:55 AM,51.8,30.2,44,29.88,10.0,South,20.7,26.5,N/A,,Overcast,180,2012-09-19 15:55:00
11:15 AM,53.6,35.6,51,29.87,10.0,South,20.7,26.5,N/A,,Overcast,170,2012-09-19 16:15:00
11:35 AM,55.4,37.4,51,29.86,10.0,South,17.3,26.5,N/A,,Overcast,180,2012-09-19 16:35:00
11:55 AM,55.4,39.2,54,29.85,10.0,South,21.9,28.8,N/A,,Overcast,180,2012-09-19 16:55:00
12:15 PM,57.2,39.2,51,29.85,10.0,South,20.7,28.8,N/A,,Overcast,180,2012-09-19 17:15:00
12:35 PM,57.2,37.4,48,29.86,10.0,South,13.8,28.8,N/A,,Overcast,190,2012-09-19 17:35:00
12:55 PM,59.0,37.4,45,29.84,10.0,SSW,21.9,31.1,N/A,,Mostly Cloudy,200,2012-09-19 17:55:00
1:15 PM,57.2,37.4,48,29.83,10.0,South,11.5,20.7,N/A,,Mostly Cloudy,180,2012-09-19 18:15:00
1:35 PM,60.8,37.4,42,29.82,10.0,South,18.4,25.3,N/A,,Scattered Clouds,180,2012-09-19 18:35:00
1:55 PM,62.6,39.2,42,29.81,10.0,South,15.0,20.7,N/A,,Scattered Clouds,190,2012-09-19 18:55:00
2:15 PM,62.6,37.4,39,29.81,10.0,SSW,19.6,-,N/A,,Scattered Clouds,200,2012-09-19 19:15:00
2:35 PM,62.6,39.2,42,29.80,10.0,South,16.1,24.2,N/A,,Scattered Clouds,190,2012-09-19 19:35:00
2:55 PM,60.8,39.2,45,29.76,10.0,South,23.0,29.9,N/A,,Partly Cloudy,180,2012-09-19 19:55:00
3:15 PM,60.8,41.0,48,29.74,10.0,South,21.9,28.8,N/A,,Scattered Clouds,180,2012-09-19 20:15:00
3:35 PM,60.8,42.8,52,29.75,10.0,South,18.4,32.2,N/A,,Scattered Clouds,180,2012-09-19 20:35:00
3:55 PM,60.8,42.8,52,29.74,10.0,South,19.6,29.9,N/A,,Mostly Cloudy,180,2012-09-19 20:55:00
4:15 PM,60.8,44.6,55,29.71,10.0,South,25.3,31.1,N/A,,Mostly Cloudy,180,2012-09-19 21:15:00
4:35 PM,62.6,44.6,52,29.68,10.0,South,26.5,38.0,N/A,,Partly Cloudy,180,2012-09-19 21:35:00
4:55 PM,62.6,44.6,52,29.69,10.0,South,24.2,39.1,N/A,,Partly Cloudy,180,2012-09-19 21:55:00
5:15 PM,62.6,46.4,55,29.71,10.0,South,19.6,34.5,N/A,,Clear,180,2012-09-19 22:15:00
5:35 PM,62.6,46.4,55,29.70,10.0,South,20.7,31.1,N/A,,Partly Cloudy,170,2012-09-19 22:35:00
5:55 PM,62.6,48.2,59,29.69,10.0,South,21.9,31.1,N/A,,Scattered Clouds,180,2012-09-19 22:55:00
6:15 PM,62.6,48.2,59,29.69,10.0,South,23.0,32.2,N/A,,Scattered Clouds,180,2012-09-19 23:15:00
6:35 PM,62.6,48.2,59,29.68,10.0,South,21.9,28.8,N/A,,Mostly Cloudy,180,2012-09-19 23:35:00
6:55 PM,62.6,48.2,59,29.66,10.0,South,18.4,31.1,N/A,,Overcast,180,2012-09-19 23:55:00
7:15 PM,62.6,48.2,59,29.65,10.0,South,19.6,28.8,N/A,,Scattered Clouds,180,2012-09-20 00:15:00
7:35 PM,62.6,50.0,63,29.64,10.0,South,18.4,28.8,N/A,,Scattered Clouds,170,2012-09-20 00:35:00
8:15 PM,62.6,50.0,63,29.64,10.0,South,20.7,32.2,N/A,Thunderstorm,Overcast,190,2012-09-20 01:15:00
8:35 PM,57.2,48.2,72,29.70,6.0,West,20.7,34.5,0.12,Thunderstorm,Thunderstorm,260,2012-09-20 01:35:00
8:55 PM,55.4,50.0,82,29.73,9.0,WNW,17.3,31.1,0.20,Thunderstorm,Mostly Cloudy,290,2012-09-20 01:55:00
9:15 PM,53.6,46.4,77,29.73,10.0,NW,8.1,-,0.03,Thunderstorm,Mostly Cloudy,310,2012-09-20 02:15:00
9:35 PM,53.6,46.4,77,29.73,10.0,WNW,5.8,-,0.04,,Overcast,290,2012-09-20 02:35:00
9:55 PM,51.8,48.2,88,29.71,10.0,SE,4.6,-,0.04,,Mostly Cloudy,130,2012-09-20 02:55:00
10:15 PM,50.0,46.4,87,29.71,10.0,South,5.8,-,N/A,,Scattered Clouds,180,2012-09-20 03:15:00
10:35 PM,50.0,46.4,87,29.72,10.0,SW,5.8,-,N/A,,Mostly Cloudy,220,2012-09-20 03:35:00
10:55 PM,48.2,46.4,93,29.73,10.0,SW,5.8,-,N/A,,Partly Cloudy,230,2012-09-20 03:55:00
11:35 PM,48.2,46.4,93,29.74,10.0,SW,8.1,-,N/A,,Clear,220,2012-09-20 04:35:00
11:55 PM,48.2,46.4,93,29.74,10.0,SW,8.1,-,N/A,,Clear,220,2012-09-20 04:55:00